Time;durP1;ratioP1;P1;durP2;ratioP2;P2;SDS_P1;SDS_P2;PMS_P1;PMS_P2;Temp;Humidity;BMP_temperature;BMP_pressure;BME280_temperature;BME280_humidity;BME280_pressure;Samples;Min_cycle;Max_cycle;Signal;HPM_P1;HPM_P2
2022/02/17 00:00:40;;;;;;;16.27;3.80;;;9.50;99.90;;;;;;5111984;28;20026;-54
2022/02/17 00:03:06;;;;;;;16.73;3.92;;;9.50;99.90;;;;;;5111908;28;20020;-53
2022/02/17 00:05:31;;;;;;;12.05;2.90;;;9.40;99.90;;;;;;5111631;28;20084;-52
2022/02/17 00:07:57;;;;;;;12.25;3.40;;;9.30;99.90;;;;;;5110723;28;20023;-53
2022/02/17 00:10:25;;;;;;;20.45;3.65;;;9.30;99.90;;;;;;5112111;28;20058;-51
2022/02/17 00:12:52;;;;;;;20.20;4.78;;;9.30;99.90;;;;;;5111341;28;20368;-53
2022/02/17 00:15:18;;;;;;;16.92;4.22;;;9.20;99.90;;;;;;5111516;28;20019;-52
2022/02/17 00:17:44;;;;;;;15.93;4.32;;;9.20;99.90;;;;;;5111224;28;20084;-55
2022/02/17 00:20:10;;;;;;;14.05;4.10;;;9.20;99.90;;;;;;5111521;28;20032;-52
2022/02/17 00:22:36;;;;;;;17.00;4.50;;;9.20;99.90;;;;;;5110730;28;20031;-53
2022/02/17 00:25:03;;;;;;;17.13;4.75;;;9.20;99.90;;;;;;5111286;28;20034;-55
2022/02/17 00:27:28;;;;;;;15.70;4.40;;;9.20;99.90;;;;;;5111838;28;20498;-54
2022/02/17 00:29:54;;;;;;;16.73;4.75;;;9.20;99.90;;;;;;5111349;28;20019;-54
2022/02/17 00:32:19;;;;;;;13.70;3.50;;;9.20;99.90;;;;;;5110912;28;20491;-52
2022/02/17 00:34:45;;;;;;;18.88;4.00;;;9.20;99.90;;;;;;5110516;28;20550;-54
2022/02/17 00:37:11;;;;;;;16.08;3.58;;;9.20;99.90;;;;;;5111071;28;20449;-56
2022/02/17 00:39:36;;;;;;;18.50;4.78;;;9.20;99.90;;;;;;5110388;28;20020;-51
2022/02/17 00:42:03;;;;;;;19.33;4.10;;;9.20;99.90;;;;;;5110871;28;20056;-56
2022/02/17 00:44:29;;;;;;;17.98;4.22;;;9.20;99.90;;;;;;5110516;28;20380;-53
2022/02/17 00:46:55;;;;;;;20.10;4.00;;;9.20;99.90;;;;;;5111076;28;20019;-50
2022/02/17 00:49:23;;;;;;;21.02;4.80;;;9.10;99.90;;;;;;5111812;28;20388;-52
2022/02/17 00:51:49;;;;;;;14.75;4.03;;;9.10;99.90;;;;;;5110990;28;20036;-54
2022/02/17 00:54:14;;;;;;;18.50;3.83;;;9.20;99.90;;;;;;5111116;27;20730;-52
2022/02/17 00:56:40;;;;;;;17.25;3.30;;;9.20;99.90;;;;;;5110567;28;20055;-53
2022/02/17 00:59:05;;;;;;;19.48;3.28;;;9.20;99.90;;;;;;5111021;28;20463;-52
2022/02/17 01:01:31;;;;;;;13.55;3.72;;;9.20;99.90;;;;;;5110697;28;20474;-52
2022/02/17 01:03:57;;;;;;;17.88;3.33;;;9.20;99.90;;;;;;5110714;28;20020;-54
2022/02/17 01:06:22;;;;;;;18.40;4.03;;;9.30;99.90;;;;;;5109545;28;20024;-52
2022/02/17 01:08:48;;;;;;;15.70;4.22;;;9.20;99.90;;;;;;5111043;28;20402;-55
2022/02/17 01:11:14;;;;;;;16.52;3.97;;;9.20;99.90;;;;;;5096204;28;20028;-53
2022/02/17 01:13:39;;;;;;;12.45;2.38;;;9.20;99.90;;;;;;5090088;28;20419;-53
2022/02/17 01:16:11;;;;;;;12.10;3.28;;;9.20;99.90;;;;;;5106475;28;20485;-55
2022/02/17 01:18:37;;;;;;;9.93;2.80;;;9.20;99.90;;;;;;5106954;28;20069;-53
2022/02/17 01:21:02;;;;;;;16.17;2.80;;;9.30;99.90;;;;;;5110240;28;20483;-52
2022/02/17 01:23:28;;;;;;;9.90;3.17;;;9.30;99.90;;;;;;5091956;28;20023;-51
2022/02/17 01:25:54;;;;;;;12.05;3.08;;;9.30;99.90;;;;;;5110238;28;20035;-53
2022/02/17 01:28:20;;;;;;;10.10;2.90;;;9.30;99.90;;;;;;5110311;28;20479;-53
2022/02/17 01:30:45;;;;;;;15.82;3.35;;;9.30;99.90;;;;;;5110221;28;20054;-52
2022/02/17 01:33:11;;;;;;;11.45;2.80;;;9.30;99.90;;;;;;5109837;28;20035;-53
2022/02/17 01:35:37;;;;;;;17.63;3.50;;;9.30;99.90;;;;;;5108610;28;20036;-52
2022/02/17 01:38:03;;;;;;;11.27;2.53;;;9.40;99.90;;;;;;5110144;28;20152;-52
2022/02/17 01:40:29;;;;;;;12.30;3.20;;;9.30;99.90;;;;;;5109958;28;20023;-51
2022/02/17 01:42:54;;;;;;;13.48;3.63;;;9.30;99.90;;;;;;5109615;28;20030;-52
2022/02/17 01:45:20;;;;;;;19.33;3.53;;;9.30;99.90;;;;;;5108294;28;20487;-53
2022/02/17 01:47:48;;;;;;;15.30;3.75;;;9.30;99.90;;;;;;5110192;28;20028;-54
2022/02/17 01:50:14;;;;;;;12.10;2.97;;;9.20;99.90;;;;;;5109656;28;20039;-53
2022/02/17 01:52:40;;;;;;;15.25;3.15;;;9.20;99.90;;;;;;5109904;28;20399;-55
2022/02/17 01:55:07;;;;;;;10.60;2.67;;;9.20;99.90;;;;;;5108546;28;20168;-51
2022/02/17 01:57:34;;;;;;;17.45;3.45;;;9.20;99.90;;;;;;5109346;28;20040;-52
2022/02/17 02:00:00;;;;;;;14.80;2.30;;;9.30;99.90;;;;;;5105505;28;20024;-52
2022/02/17 02:02:27;;;;;;;10.02;3.13;;;9.20;99.90;;;;;;5107525;28;20038;-52
2022/02/17 02:04:52;;;;;;;12.65;3.60;;;9.30;99.90;;;;;;5106916;28;20023;-52
2022/02/17 02:07:18;;;;;;;11.48;3.65;;;9.20;99.90;;;;;;5109154;28;20389;-55
2022/02/17 02:09:44;;;;;;;13.18;3.28;;;9.20;99.90;;;;;;5092452;28;20040;-51
2022/02/17 02:12:10;;;;;;;12.82;3.20;;;9.20;99.90;;;;;;5070773;28;20036;-53
2022/02/17 02:14:36;;;;;;;14.45;3.50;;;9.30;99.90;;;;;;5103451;28;20407;-53
2022/02/17 02:17:04;;;;;;;16.52;3.55;;;9.20;99.90;;;;;;5107646;28;20099;-53
2022/02/17 02:19:30;;;;;;;25.23;3.95;;;9.30;99.90;;;;;;5109769;28;20110;-50
2022/02/17 02:21:55;;;;;;;17.40;3.85;;;9.20;99.90;;;;;;5085960;28;20120;-51
2022/02/17 02:24:21;;;;;;;14.52;4.15;;;9.20;99.90;;;;;;5093576;28;20027;-54
2022/02/17 02:26:47;;;;;;;12.15;2.83;;;9.10;99.90;;;;;;5091824;28;20089;-51
2022/02/17 02:29:12;;;;;;;14.70;4.15;;;9.10;99.90;;;;;;5109664;28;20027;-53
2022/02/17 02:31:38;;;;;;;17.75;4.45;;;9.00;99.90;;;;;;5108103;28;20097;-52
2022/02/17 02:34:03;;;;;;;15.30;3.95;;;8.90;99.90;;;;;;5109531;28;20086;-53
2022/02/17 02:36:29;;;;;;;16.77;5.13;;;8.90;99.90;;;;;;5107557;28;20032;-53
2022/02/17 02:38:55;;;;;;;19.15;4.35;;;8.80;99.90;;;;;;5109514;28;20032;-55
2022/02/17 02:41:20;;;;;;;17.75;3.60;;;8.80;99.90;;;;;;5094961;28;20024;-51
2022/02/17 02:43:46;;;;;;;11.70;3.65;;;8.70;99.90;;;;;;5088685;28;20059;-52
2022/02/17 02:46:12;;;;;;;18.05;4.05;;;8.70;99.90;;;;;;5089416;28;20039;-52
2022/02/17 02:48:37;;;;;;;24.23;5.25;;;8.70;99.90;;;;;;5089843;28;20036;-51
2022/02/17 02:51:03;;;;;;;15.85;4.32;;;8.60;99.90;;;;;;5089207;28;20062;-53
2022/02/17 02:53:29;;;;;;;21.10;5.35;;;8.60;99.90;;;;;;5088986;28;20024;-52
2022/02/17 02:55:55;;;;;;;24.92;5.40;;;8.60;99.90;;;;;;5090084;28;20488;-53
2022/02/17 02:58:21;;;;;;;16.05;3.63;;;8.50;99.90;;;;;;5093165;28;20031;-52
2022/02/17 03:00:49;;;;;;;23.40;4.90;;;8.50;99.90;;;;;;5082652;28;20021;-52
2022/02/17 03:03:15;;;;;;;19.55;5.53;;;8.50;99.90;;;;;;5081627;28;20072;-51
2022/02/17 03:05:41;;;;;;;21.40;4.55;;;8.50;99.90;;;;;;5112963;28;20027;-53
2022/02/17 03:08:08;;;;;;;17.33;4.30;;;8.40;99.90;;;;;;5112786;28;20020;-53
2022/02/17 03:10:33;;;;;;;19.83;4.75;;;8.40;99.90;;;;;;5113080;28;20030;-52
2022/02/17 03:13:00;;;;;;;17.30;5.00;;;8.40;99.90;;;;;;5110982;28;20469;-52
2022/02/17 03:15:26;;;;;;;20.10;5.18;;;8.40;99.90;;;;;;5113198;28;20012;-50
2022/02/17 03:17:52;;;;;;;23.38;4.53;;;8.30;99.90;;;;;;5094320;28;20479;-54
2022/02/17 03:20:19;;;;;;;15.55;3.83;;;8.20;99.90;;;;;;5112793;28;20020;-52
2022/02/17 03:22:44;;;;;;;23.55;4.03;;;8.20;99.90;;;;;;5111830;28;20479;-52
2022/02/17 03:25:12;;;;;;;20.40;4.90;;;8.10;99.90;;;;;;5112297;28;20020;-52
2022/02/17 03:27:38;;;;;;;15.95;4.00;;;8.10;99.90;;;;;;5112387;28;20039;-51
2022/02/17 03:30:06;;;;;;;20.38;3.47;;;8.10;99.90;;;;;;5113039;28;20024;-52
2022/02/17 03:32:34;;;;;;;15.65;3.70;;;8.10;99.90;;;;;;5096472;28;20020;-50
2022/02/17 03:34:59;;;;;;;18.70;3.85;;;8.10;99.90;;;;;;5114356;22;20450;-56
2022/02/17 03:37:25;;;;;;;13.85;3.75;;;8.20;99.90;;;;;;5073259;28;20034;-56
2022/02/17 03:39:50;;;;;;;15.27;3.90;;;8.10;99.90;;;;;;5091517;28;20032;-57
2022/02/17 03:42:16;;;;;;;16.05;3.85;;;8.10;99.90;;;;;;5091742;28;20452;-53
2022/02/17 03:44:42;;;;;;;24.55;3.33;;;8.00;99.90;;;;;;5091788;28;20492;-57
2022/02/17 03:47:08;;;;;;;21.13;4.18;;;7.90;99.90;;;;;;5091891;28;20035;-54
2022/02/17 03:49:34;;;;;;;18.33;4.30;;;7.80;99.90;;;;;;5091185;28;20111;-57
2022/02/17 03:51:59;;;;;;;22.02;4.13;;;7.70;99.90;;;;;;5073234;28;20034;-55
2022/02/17 03:54:25;;;;;;;14.25;3.95;;;7.80;99.90;;;;;;5072889;28;20126;-55
2022/02/17 03:56:50;;;;;;;14.25;3.92;;;7.80;99.90;;;;;;5091507;28;20060;-55
2022/02/17 03:59:16;;;;;;;15.18;4.45;;;7.80;99.90;;;;;;5091540;28;20060;-54
2022/02/17 04:01:41;;;;;;;15.18;3.95;;;7.80;99.90;;;;;;5091488;28;20035;-54
2022/02/17 04:04:11;;;;;;;17.80;3.88;;;7.80;99.90;;;;;;5091070;28;20038;-57
2022/02/17 04:06:37;;;;;;;13.73;4.50;;;7.80;99.90;;;;;;5091034;28;20453;-55
2022/02/17 04:09:05;;;;;;;15.98;3.38;;;7.80;99.90;;;;;;5091637;28;20024;-56
2022/02/17 04:11:31;;;;;;;10.30;3.25;;;7.90;99.90;;;;;;5073143;28;20024;-56
2022/02/17 04:13:56;;;;;;;15.63;4.65;;;7.90;99.90;;;;;;5090389;28;20020;-52
2022/02/17 04:16:22;;;;;;;19.10;4.65;;;8.00;99.90;;;;;;5091107;28;20035;-54
2022/02/17 04:18:49;;;;;;;19.00;3.55;;;8.00;99.90;;;;;;5091450;28;20070;-55
2022/02/17 04:21:16;;;;;;;15.68;3.85;;;8.00;99.90;;;;;;5091396;28;20036;-52
2022/02/17 04:23:45;;;;;;;18.75;3.45;;;8.00;99.90;;;;;;5091029;28;20480;-58
2022/02/17 04:26:12;;;;;;;15.50;3.05;;;8.00;99.90;;;;;;5090884;28;20067;-58
2022/02/17 04:28:39;;;;;;;18.73;3.63;;;8.00;99.90;;;;;;5090929;28;20550;-57
2022/02/17 04:31:06;;;;;;;17.75;4.05;;;8.00;99.90;;;;;;5090970;28;20032;-57
2022/02/17 04:33:34;;;;;;;14.75;3.40;;;8.00;99.90;;;;;;5072169;28;20024;-58
2022/02/17 04:36:00;;;;;;;16.60;3.20;;;8.00;99.90;;;;;;5090011;28;20111;-57
2022/02/17 04:38:26;;;;;;;12.40;3.78;;;8.00;99.90;;;;;;5091020;28;20536;-55
2022/02/17 04:43:36;;;;;;;16.83;4.40;;;8.00;99.90;;;;;;5090217;28;20082;-56
2022/02/17 04:46:02;;;;;;;16.98;3.85;;;8.00;99.90;;;;;;5090835;28;20020;-57
2022/02/17 04:48:27;;;;;;;21.05;4.15;;;7.90;99.90;;;;;;5090469;28;20503;-58
2022/02/17 04:50:53;;;;;;;18.88;4.32;;;7.90;99.90;;;;;;5090695;28;20058;-56
2022/02/17 04:53:18;;;;;;;17.42;3.65;;;7.80;99.90;;;;;;5090051;28;20560;-57
2022/02/17 04:55:44;;;;;;;15.80;3.50;;;7.80;99.90;;;;;;5090389;28;20028;-57
2022/02/17 04:58:10;;;;;;;13.25;3.78;;;7.70;99.90;;;;;;5072380;28;20406;-54
2022/02/17 05:00:35;;;;;;;13.70;3.92;;;7.70;99.90;;;;;;5090730;28;20443;-58
2022/02/17 05:03:01;;;;;;;15.10;4.53;;;7.60;99.90;;;;;;5089799;28;20110;-56
2022/02/17 05:05:26;;;;;;;17.83;3.47;;;7.50;99.90;;;;;;5090798;28;20028;-58
2022/02/17 05:07:52;;;;;;;14.98;3.63;;;7.50;99.90;;;;;;5089943;28;20035;-57
2022/02/17 05:10:18;;;;;;;14.98;3.97;;;7.50;99.90;;;;;;5090201;28;20039;-57
2022/02/17 05:12:43;;;;;;;16.70;4.00;;;7.50;99.90;;;;;;5089926;28;20043;-56
2022/02/17 05:15:09;;;;;;;15.85;3.50;;;7.40;99.90;;;;;;5090441;28;20171;-57
2022/02/17 05:17:35;;;;;;;13.63;3.33;;;7.30;99.90;;;;;;5089952;28;20518;-57
2022/02/17 05:20:00;;;;;;;14.60;3.88;;;7.30;99.90;;;;;;5072093;28;20054;-54
2022/02/17 05:22:26;;;;;;;16.45;3.78;;;7.20;99.90;;;;;;5089701;28;20079;-55
2022/02/17 05:24:51;;;;;;;15.50;4.30;;;7.10;99.90;;;;;;5089529;28;20395;-56
2022/02/17 05:27:17;;;;;;;20.48;4.18;;;7.00;99.90;;;;;;5090236;28;20036;-57
2022/02/17 05:29:42;;;;;;;15.38;3.67;;;7.00;99.90;;;;;;5090437;28;20027;-56
2022/02/17 05:32:08;;;;;;;14.80;4.22;;;7.00;99.90;;;;;;5089688;28;20054;-53
2022/02/17 05:34:34;;;;;;;17.38;3.63;;;7.00;99.90;;;;;;5089842;28;20035;-56
2022/02/17 05:37:01;;;;;;;14.88;4.15;;;6.90;99.90;;;;;;5090672;28;20031;-56
2022/02/17 05:39:27;;;;;;;20.10;5.28;;;6.80;99.90;;;;;;5089420;28;20399;-55
2022/02/17 05:41:53;;;;;;;20.50;4.65;;;6.70;99.90;;;;;;5089811;28;20074;-54
2022/02/17 05:44:19;;;;;;;22.63;4.85;;;6.60;99.90;;;;;;5089473;28;20028;-55
2022/02/17 05:46:45;;;;;;;26.45;5.93;;;6.60;99.90;;;;;;5089975;28;20108;-57
2022/02/17 05:49:11;;;;;;;19.45;4.55;;;6.50;99.90;;;;;;5089746;28;20094;-56
2022/02/17 05:51:36;;;;;;;18.52;5.28;;;6.40;99.90;;;;;;5089705;28;20030;-53
2022/02/17 05:54:02;;;;;;;24.38;5.40;;;6.40;99.90;;;;;;5088946;28;20089;-59
2022/02/17 05:56:27;;;;;;;23.45;5.15;;;6.40;99.90;;;;;;5069478;28;20085;-56
2022/02/17 05:58:53;;;;;;;21.45;5.65;;;6.30;99.90;;;;;;5069742;28;20025;-58
2022/02/17 06:01:18;;;;;;;26.98;6.45;;;6.40;99.90;;;;;;5088396;28;20043;-56
2022/02/17 06:03:44;;;;;;;28.48;6.55;;;6.30;99.90;;;;;;5089033;28;20021;-58
2022/02/17 06:06:09;;;;;;;22.23;5.10;;;6.20;99.90;;;;;;5087588;28;20392;-57
2022/02/17 06:08:35;;;;;;;24.42;5.35;;;6.20;99.90;;;;;;5088782;28;20544;-56
2022/02/17 06:11:01;;;;;;;22.20;5.35;;;6.20;99.90;;;;;;5089215;28;20534;-59
2022/02/17 06:13:26;;;;;;;31.02;6.03;;;6.20;99.90;;;;;;5089431;28;20095;-57
2022/02/17 06:15:52;;;;;;;34.25;5.47;;;6.20;99.90;;;;;;5089704;28;20024;-56
2022/02/17 06:18:17;;;;;;;23.95;5.35;;;6.20;99.90;;;;;;5089336;28;20065;-56
2022/02/17 06:20:43;;;;;;;20.25;5.45;;;6.20;99.90;;;;;;5089421;28;20034;-55
2022/02/17 06:23:08;;;;;;;20.83;5.57;;;6.30;99.90;;;;;;5070843;28;20419;-57
2022/02/17 06:25:34;;;;;;;24.92;5.90;;;6.30;99.90;;;;;;5089228;28;20365;-54
2022/02/17 06:28:02;;;;;;;27.38;5.82;;;6.20;99.90;;;;;;5089580;28;20055;-55
2022/02/17 06:30:27;;;;;;;21.70;5.35;;;6.20;99.90;;;;;;5071166;28;20399;-52
2022/02/17 06:32:54;;;;;;;20.55;4.93;;;6.20;99.90;;;;;;5089111;28;20012;-57
2022/02/17 06:35:26;;;;;;;25.83;6.05;;;6.20;99.90;;;;;;5089180;28;20191;-54
2022/02/17 06:37:52;;;;;;;33.90;6.00;;;6.20;99.90;;;;;;5092376;28;20070;-57
2022/02/17 06:40:19;;;;;;;23.25;5.88;;;6.20;99.90;;;;;;5093798;28;20063;-56
2022/02/17 06:42:46;;;;;;;24.00;5.80;;;6.20;99.90;;;;;;5093118;28;20498;-57
2022/02/17 06:45:12;;;;;;;38.95;5.95;;;6.20;99.90;;;;;;5093834;28;20043;-59
2022/02/17 06:47:38;;;;;;;24.67;6.35;;;6.10;99.90;;;;;;5092865;28;20396;-58
2022/02/17 06:50:05;;;;;;;29.20;6.97;;;6.10;99.90;;;;;;5074708;28;20024;-59
2022/02/17 06:52:31;;;;;;;23.55;5.50;;;6.10;99.90;;;;;;5074928;28;20055;-56
2022/02/17 06:54:57;;;;;;;32.22;6.60;;;6.10;99.90;;;;;;5092546;28;20062;-54
2022/02/17 06:57:23;;;;;;;25.73;5.70;;;6.10;99.90;;;;;;5093186;28;20027;-56
2022/02/17 06:59:50;;;;;;;34.60;6.10;;;6.10;99.90;;;;;;5092365;28;20024;-56
2022/02/17 07:02:24;;;;;;;27.05;6.15;;;6.10;99.90;;;;;;5092641;28;20103;-52
2022/02/17 07:04:50;;;;;;;28.10;6.40;;;6.00;99.90;;;;;;5074637;28;20433;-53
2022/02/17 07:07:16;;;;;;;17.67;4.55;;;6.10;99.90;;;;;;5092685;28;20024;-56
2022/02/17 07:09:41;;;;;;;27.02;5.78;;;6.10;99.90;;;;;;5074116;28;20495;-54
2022/02/17 07:12:07;;;;;;;23.73;6.00;;;6.10;99.90;;;;;;5092093;28;20051;-54
2022/02/17 07:14:33;;;;;;;21.20;5.20;;;6.10;99.90;;;;;;5074262;28;20325;-54
2022/02/17 07:16:59;;;;;;;31.10;6.25;;;6.10;99.90;;;;;;5092167;28;20030;-58
2022/02/17 07:19:25;;;;;;;31.00;6.05;;;6.10;99.90;;;;;;5087271;28;20050;-60
2022/02/17 07:21:52;;;;;;;24.33;5.68;;;6.00;99.90;;;;;;5075939;28;20016;-53
2022/02/17 07:24:18;;;;;;;19.65;5.00;;;6.00;99.90;;;;;;5072042;28;20035;-54
2022/02/17 07:26:44;;;;;;;22.98;5.25;;;6.00;99.90;;;;;;5072281;28;20046;-50
2022/02/17 07:29:10;;;;;;;23.83;5.72;;;6.00;99.90;;;;;;5072537;28;20507;-52
2022/02/17 07:31:36;;;;;;;29.88;5.80;;;6.00;99.90;;;;;;5071896;28;20024;-54
2022/02/17 07:34:03;;;;;;;22.50;6.15;;;6.00;99.90;;;;;;5071914;28;20087;-54
2022/02/17 07:36:29;;;;;;;19.92;5.32;;;5.90;99.90;;;;;;5071888;28;20150;-56
2022/02/17 07:38:54;;;;;;;19.60;5.28;;;5.90;99.90;;;;;;5053454;28;20229;-54
2022/02/17 07:41:20;;;;;;;10.05;3.15;;;5.90;99.90;;;;;;5071779;28;20040;-56
2022/02/17 07:43:45;;;;;;;15.43;3.63;;;5.90;99.90;;;;;;5071398;28;20017;-58
2022/02/17 07:46:12;;;;;;;16.77;4.22;;;5.80;99.90;;;;;;5089805;28;20438;-58
2022/02/17 07:48:38;;;;;;;12.82;3.25;;;5.80;99.90;;;;;;5090382;28;20028;-56
2022/02/17 07:51:04;;;;;;;10.93;3.15;;;5.80;99.90;;;;;;5091795;28;20024;-53
2022/02/17 07:53:31;;;;;;;12.20;3.33;;;5.70;99.90;;;;;;5090216;28;20093;-58
2022/02/17 07:55:56;;;;;;;14.93;3.15;;;5.70;99.90;;;;;;5091716;28;20020;-54
2022/02/17 07:58:22;;;;;;;18.02;3.95;;;5.70;99.90;;;;;;5091533;28;20039;-57
2022/02/17 08:00:48;;;;;;;11.35;3.92;;;5.70;99.90;;;;;;5091428;28;20035;-59
2022/02/17 08:03:14;;;;;;;21.20;3.47;;;5.70;99.90;;;;;;5091743;28;20040;-56
2022/02/17 08:05:41;;;;;;;14.23;3.55;;;5.70;99.90;;;;;;5090929;28;20452;-59
2022/02/17 08:08:07;;;;;;;11.18;3.40;;;5.70;99.90;;;;;;5090595;28;20028;-56
2022/02/17 08:10:35;;;;;;;15.57;3.55;;;5.70;99.90;;;;;;5090585;28;20059;-55
2022/02/17 08:13:01;;;;;;;21.48;5.10;;;5.80;99.90;;;;;;5087639;28;20026;-59
2022/02/17 08:15:27;;;;;;;14.27;3.45;;;5.80;99.90;;;;;;5090322;28;20036;-55
2022/02/17 08:17:52;;;;;;;17.20;3.78;;;5.80;99.90;;;;;;5090542;28;20028;-58
2022/02/17 08:20:18;;;;;;;13.60;4.25;;;5.90;99.90;;;;;;5090266;28;20090;-55
2022/02/17 08:22:55;;;;;;;24.67;4.90;;;5.90;99.90;;;;;;5089427;28;20028;-55
2022/02/17 08:25:21;;;;;;;22.10;4.45;;;5.90;99.90;;;;;;5090947;28;20016;-56
2022/02/17 08:27:47;;;;;;;13.45;2.88;;;5.90;99.90;;;;;;5074846;28;20043;-59
2022/02/17 08:30:14;;;;;;;13.25;3.67;;;5.90;99.90;;;;;;5090346;28;20040;-57
2022/02/17 08:32:40;;;;;;;17.35;3.25;;;5.90;99.90;;;;;;5089213;28;20083;-58
2022/02/17 08:35:07;;;;;;;17.35;4.90;;;5.90;99.90;;;;;;5071366;28;20236;-55
2022/02/17 08:37:33;;;;;;;16.85;3.35;;;5.90;99.90;;;;;;5089875;28;20380;-57
2022/02/17 08:39:58;;;;;;;22.85;4.40;;;5.90;99.90;;;;;;5090727;28;20040;-56
2022/02/17 08:42:24;;;;;;;15.07;4.30;;;5.80;99.90;;;;;;5090057;28;20400;-56
2022/02/17 08:44:50;;;;;;;11.70;3.25;;;5.90;99.90;;;;;;5089879;28;20449;-53
2022/02/17 08:47:17;;;;;;;14.30;3.85;;;5.90;99.90;;;;;;5089494;28;20031;-56
2022/02/17 08:49:44;;;;;;;11.00;3.35;;;6.00;99.90;;;;;;5080879;28;20068;-57
2022/02/17 08:52:09;;;;;;;13.27;2.95;;;6.00;99.90;;;;;;5080657;28;20024;-56
2022/02/17 08:54:36;;;;;;;9.93;3.10;;;6.00;99.90;;;;;;5090291;28;20185;-54
2022/02/17 08:57:02;;;;;;;18.50;3.13;;;6.00;99.90;;;;;;5090949;28;20035;-58
2022/02/17 08:59:28;;;;;;;18.27;2.78;;;6.10;99.90;;;;;;5071500;28;20043;-56
2022/02/17 09:01:54;;;;;;;8.90;2.65;;;6.10;99.90;;;;;;5090471;28;20059;-55
2022/02/17 09:04:20;;;;;;;14.20;3.53;;;6.00;99.90;;;;;;5090416;28;20038;-54
2022/02/17 09:06:49;;;;;;;13.93;3.90;;;6.00;99.90;;;;;;5089622;28;20039;-57
2022/02/17 09:09:17;;;;;;;15.98;3.60;;;5.90;99.90;;;;;;5090410;28;20495;-55
2022/02/17 09:11:43;;;;;;;15.25;2.53;;;6.00;99.90;;;;;;5090400;28;20039;-53
2022/02/17 09:14:09;;;;;;;16.17;3.92;;;6.00;99.90;;;;;;5087951;28;20478;-55
2022/02/17 09:16:37;;;;;;;15.27;4.28;;;6.00;99.90;;;;;;5089751;28;20090;-56
2022/02/17 09:19:04;;;;;;;10.60;3.25;;;6.00;99.90;;;;;;5090284;28;20028;-58
2022/02/17 09:21:30;;;;;;;15.40;3.78;;;6.10;99.90;;;;;;5081204;28;20642;-55
2022/02/17 09:23:56;;;;;;;20.35;3.22;;;6.10;99.90;;;;;;5070233;28;20036;-51
2022/02/17 09:26:22;;;;;;;15.52;3.92;;;6.10;99.90;;;;;;5089270;28;20016;-56
2022/02/17 09:28:48;;;;;;;21.58;4.53;;;6.20;99.90;;;;;;5089101;28;20119;-54
2022/02/17 09:31:23;;;;;;;14.13;2.58;;;6.10;99.90;;;;;;5088544;28;20031;-52
2022/02/17 09:33:55;;;;;;;13.80;3.53;;;6.10;99.90;;;;;;5087867;28;20093;-56
2022/02/17 09:36:25;;;;;;;16.98;2.85;;;6.10;99.90;;;;;;5089009;28;20484;-56
2022/02/17 09:38:51;;;;;;;9.23;2.80;;;6.10;99.90;;;;;;5089327;28;20028;-53
2022/02/17 09:41:20;;;;;;;12.05;1.90;;;6.10;99.90;;;;;;5089083;28;20024;-53
2022/02/17 09:43:46;;;;;;;6.00;2.25;;;6.20;99.90;;;;;;5084739;28;20073;-51
2022/02/17 09:46:21;;;;;;;8.48;1.35;;;6.20;99.90;;;;;;5089204;28;20331;-55
2022/02/17 09:49:00;;;;;;;7.45;1.65;;;6.20;99.90;;;;;;5089035;28;20400;-53
2022/02/17 09:51:28;;;;;;;3.47;0.80;;;6.20;99.90;;;;;;5088478;28;20051;-55
2022/02/17 09:53:54;;;;;;;5.57;1.45;;;6.10;99.90;;;;;;5088512;28;20089;-55
2022/02/17 09:56:22;;;;;;;4.85;1.10;;;6.10;99.90;;;;;;5088662;28;20032;-58
2022/02/17 09:58:49;;;;;;;3.35;1.13;;;6.10;99.90;;;;;;5089046;28;20035;-52
2022/02/17 10:01:26;;;;;;;3.70;0.90;;;6.00;99.90;;;;;;5089134;28;20379;-51
2022/02/17 10:04:12;;;;;;;6.15;1.15;;;6.00;99.90;;;;;;5073995;28;20020;-56
2022/02/17 10:06:53;;;;;;;5.90;0.80;;;6.00;99.90;;;;;;5069319;28;20063;-55
2022/02/17 10:09:21;;;;;;;3.00;0.50;;;5.80;99.90;;;;;;5078961;28;20273;-52
2022/02/17 10:11:49;;;;;;;1.38;0.57;;;5.70;99.90;;;;;;5070421;28;20024;-57
2022/02/17 10:14:19;;;;;;;1.98;0.60;;;5.60;99.90;;;;;;5088179;28;20040;-55
2022/02/17 10:16:59;;;;;;;7.97;1.38;;;5.50;99.90;;;;;;5087645;28;20172;-54
2022/02/17 10:19:33;;;;;;;2.75;0.50;;;5.40;99.90;;;;;;5070402;28;20402;-56
2022/02/17 10:22:10;;;;;;;3.20;0.98;;;5.40;99.90;;;;;;5088201;28;20070;-59
2022/02/17 10:24:44;;;;;;;6.55;1.25;;;5.40;99.90;;;;;;5088594;28;20407;-54
2022/02/17 10:27:14;;;;;;;5.20;1.30;;;5.30;99.90;;;;;;5088799;28;20048;-57
2022/02/17 10:29:56;;;;;;;10.05;2.20;;;5.30;99.90;;;;;;5088659;28;20040;-56
2022/02/17 10:32:21;;;;;;;4.22;1.15;;;5.40;99.90;;;;;;5088152;28;20032;-57
2022/02/17 10:34:47;;;;;;;10.20;1.98;;;5.40;99.90;;;;;;5070165;28;20042;-57
2022/02/17 10:37:12;;;;;;;9.32;2.35;;;5.50;99.90;;;;;;5088348;28;20028;-59
2022/02/17 10:39:42;;;;;;;13.02;2.90;;;5.60;99.90;;;;;;5088295;28;20415;-55
2022/02/17 10:42:09;;;;;;;6.70;2.40;;;5.60;99.90;;;;;;5088335;28;20058;-54
2022/02/17 10:44:45;;;;;;;11.95;2.63;;;5.70;99.90;;;;;;5088295;28;20035;-56
2022/02/17 10:47:13;;;;;;;8.90;2.47;;;5.70;99.90;;;;;;5088646;28;20104;-57
2022/02/17 10:49:43;;;;;;;13.60;2.67;;;5.80;99.90;;;;;;5088007;28;20290;-53
2022/02/17 10:52:09;;;;;;;17.42;4.00;;;5.80;99.90;;;;;;5087509;28;20020;-59
2022/02/17 10:54:35;;;;;;;13.35;3.35;;;5.80;99.90;;;;;;5069860;28;20169;-57
2022/02/17 10:57:04;;;;;;;18.27;3.60;;;5.90;99.90;;;;;;5082328;28;20029;-54
2022/02/17 11:02:24;;;;;;;17.70;3.08;;;6.10;99.90;;;;;;5088309;28;20447;-54
2022/02/17 11:04:50;;;;;;;14.80;2.60;;;6.20;99.90;;;;;;5084188;28;20055;-59
2022/02/17 11:07:17;;;;;;;15.63;2.88;;;6.30;99.90;;;;;;5088805;28;20032;-58
2022/02/17 11:09:45;;;;;;;13.93;3.13;;;6.40;99.90;;;;;;5089095;28;20028;-52
2022/02/17 11:12:11;;;;;;;8.95;2.05;;;6.60;99.90;;;;;;5088564;28;20069;-55
2022/02/17 11:14:41;;;;;;;9.07;2.40;;;6.70;99.90;;;;;;5088571;28;20520;-55
2022/02/17 11:17:08;;;;;;;9.48;1.73;;;6.70;99.90;;;;;;5089324;28;20068;-56
2022/02/17 11:19:36;;;;;;;8.70;2.25;;;6.70;99.90;;;;;;5070455;28;20039;-54
2022/02/17 11:22:02;;;;;;;5.80;1.42;;;6.70;99.90;;;;;;5088207;28;20021;-59
2022/02/17 11:24:28;;;;;;;4.80;1.65;;;6.70;99.90;;;;;;5092406;28;20446;-54
2022/02/17 11:27:05;;;;;;;14.70;3.22;;;6.70;99.90;;;;;;5092549;28;20028;-55
2022/02/17 11:29:36;;;;;;;8.00;2.20;;;6.60;99.90;;;;;;5092310;28;20093;-54
2022/02/17 11:32:05;;;;;;;11.15;1.73;;;6.50;99.90;;;;;;5092293;28;20051;-51
2022/02/17 11:34:38;;;;;;;6.82;2.00;;;6.50;99.90;;;;;;5091124;28;20554;-54
2022/02/17 11:37:22;;;;;;;14.45;2.30;;;6.30;99.90;;;;;;5092570;28;20024;-59
2022/02/17 11:39:57;;;;;;;3.72;1.25;;;6.20;99.90;;;;;;5091282;28;20124;-54
2022/02/17 11:42:29;;;;;;;3.25;1.08;;;5.90;99.90;;;;;;5091652;28;20035;-58
2022/02/17 11:45:15;;;;;;;1.33;0.60;;;5.80;99.90;;;;;;5092090;28;20146;-55
2022/02/17 11:48:01;;;;;;;5.15;1.38;;;5.50;99.90;;;;;;5092050;28;20490;-56
2022/02/17 11:50:48;;;;;;;6.43;1.50;;;5.50;99.90;;;;;;5091882;28;20020;-60
2022/02/17 11:53:32;;;;;;;4.38;1.35;;;5.40;99.90;;;;;;5091349;28;20372;-53
2022/02/17 11:56:07;;;;;;;7.38;1.63;;;5.40;99.90;;;;;;5092176;28;20028;-54
2022/02/17 11:58:44;;;;;;;10.93;1.55;;;5.40;99.90;;;;;;5091558;28;20105;-53
2022/02/17 12:01:27;;;;;;;9.70;2.00;;;5.40;99.90;;;;;;5091650;28;20492;-55
2022/02/17 12:04:14;;;;;;;12.68;2.33;;;5.40;99.90;;;;;;5090603;28;20031;-56
2022/02/17 12:06:46;;;;;;;8.68;2.70;;;5.50;99.90;;;;;;5069332;28;20025;-59
2022/02/17 12:09:30;;;;;;;9.48;1.95;;;5.60;99.90;;;;;;5077337;28;20052;-56
2022/02/17 12:12:27;;;;;;;12.75;2.40;;;5.70;99.90;;;;;;5069590;28;20495;-58
2022/02/17 12:14:54;;;;;;;;;;;5.70;99.90;;;;;;5085648;28;20376;-55
2022/02/17 12:17:33;;;;;;;8.40;1.98;;;5.80;99.90;;;;;;5090316;28;19908;-59
2022/02/17 12:20:05;;;;;;;6.50;1.20;;;5.80;99.90;;;;;;5089244;28;20074;-53
2022/02/17 12:22:31;;;;;;;8.13;1.58;;;5.80;99.90;;;;;;5071362;28;20051;-54
2022/02/17 12:25:38;;;;;;;10.80;2.08;;;5.80;99.90;;;;;;5089547;28;20518;-54
2022/02/17 12:28:05;;;;;;;;;;;5.70;99.90;;;;;;5008645;28;20118;-55
2022/02/17 12:30:57;;;;;;;8.10;1.90;;;5.60;99.90;;;;;;5074229;28;19916;-57
2022/02/17 12:33:27;;;;;;;5.78;1.13;;;5.60;99.90;;;;;;5068112;28;20036;-56
2022/02/17 12:35:57;;;;;;;9.25;1.83;;;5.60;99.90;;;;;;5086523;28;20491;-59
2022/02/17 12:38:25;;;;;;;9.40;1.75;;;5.50;99.90;;;;;;5089937;28;20027;-56
2022/02/17 12:40:52;;;;;;;13.48;2.83;;;5.50;99.90;;;;;;5090330;28;20082;-51
2022/02/17 12:43:32;;;;;;;11.45;2.13;;;5.50;99.90;;;;;;5089916;28;20178;-57
2022/02/17 12:45:58;;;;;;;13.38;3.50;;;5.50;99.90;;;;;;5070138;28;20025;-54
2022/02/17 12:48:29;;;;;;;7.72;1.52;;;5.40;99.90;;;;;;5089640;28;20024;-60
2022/02/17 12:50:54;;;;;;;8.98;2.58;;;5.40;99.90;;;;;;5089756;28;20019;-60
2022/02/17 12:53:20;;;;;;;10.77;2.58;;;5.40;99.90;;;;;;5086112;28;20032;-57
2022/02/17 12:55:51;;;;;;;11.38;1.95;;;5.40;99.90;;;;;;5089771;28;20247;-57